Weather at General E. Mosconi Airport

Public forecast

Using degrees Celsius for public forecast. Weather courtesy of forecast.io.

Current aviation weather report (METAR) for General E. Mosconi Airport

Retrieved 2021/08/06 03:43 UTC (1 minute ago):

SAVC 060343Z 33014KT 290V010 CAVOK 13/M02 Q1007

Aviation forecast (TAF) for General E. Mosconi Airport

Retrieved 2021-08-06 00:00 UTC (4 hours ago):

TAF SAVC 052300Z 0600/0624 29020G30KT CAVOK TX17/0620Z TN08/0611Z TEMPO 0603/0612 27015KT BECMG 0616/0618 28030G40KT